Jogging des 6 Gués (Winamplanche) 06/08/2022 - 10,5 km
Mise à jour le : 06/08/2022 à 17:46
Correction possible jusqu'au 20/08/2022 en cliquant ici
Place Nom Prénom Dossard Temps Vitesse Allure Place. Cat. Catégorie
1 PAQUET AMAURY 23 38:50 16,22 3:41 1 Séniors
2 KONINCKX STEPHANE 219 38:55 16,19 3:42 2 Séniors
3 ERNENS GAETHAN 223 39:35 15,92 3:46 3 Séniors
4 DE LA CERDA THEO 771 41:01 15,36 3:54 4 Séniors
5 WEUSTEN CEDRIC 444 41:25 15,21 3:56 5 Séniors
6 WYAIME ANTOINE 708 42:04 14,98 4:00 6 Séniors
7 HEROUFOSSE CHRISTOPHER 725 42:14 14,91 4:01 7 Séniors
8 JOCKIN FRANCOIS 761 43:34 14,46 4:08 8 Séniors
9 HECK MARC 740 43:49 14,38 4:10 1 Vétérans 1
10 NIZET KEVIN 712 44:10 14,26 4:12 9 Séniors
11 BROCHARD VINCENT 745 44:56 14,02 4:16 2 Vétérans 1
12 PLAIR SIMON 711 45:00 14,00 4:17 10 Séniors
13 VAESSEN FRANCOIS 701 45:26 13,87 4:19 3 Vétérans 1
14 JANDRAIN FRANCOIS 381 45:31 13,84 4:20 4 Vétérans 1
15 NOEL JULIEN 739 45:56 13,71 4:22 11 Séniors
16 VANHULST BENOIT 478 46:05 13,67 4:23 5 Vétérans 1
17 BREUER GUILLAUME 787 46:10 13,64 4:23 12 Séniors
18 VITELLO CHRISTOPHE 742 46:27 13,56 4:25 6 Vétérans 1
19 SCHOONBROODT BENOIT 3 47:15 13,33 4:30 1 Vétérans 2
20 DEJARDIN FRED 546 47:22 13,30 4:30 2 Vétérans 2
21 MATHIEU BERNARD 760 47:49 13,17 4:33 1 Vétérans 3
22 HICK GAELLE 737 48:14 13,06 4:35 1 Ainées 1
23 LEHAEN PIERRE-OLIVIER 436 48:21 13,03 4:36 7 Vétérans 1
24 HORWARD FRANÇOISE 747 48:32 12,98 4:37 1 Ainées 2
25 LORQUET JEAN-MARC 10 48:33 12,97 4:37 3 Vétérans 2
26 SCHOENMAKERS BENOIT 260 50:05 12,58 4:46 4 Vétérans 2
27 JORIS JONATHAN 700 50:12 12,55 4:46 13 Séniors
28 DHONDT FREDERIC 718 50:21 12,51 4:47 8 Vétérans 1
29 LEUSCH MYRTILLE 217 50:24 12,50 4:48 1 Dames
30 COOSEMANS ROMUALD 516 50:28 12,48 4:48 14 Séniors
31 LIBERT SEBASTIEN 714 50:51 12,39 4:50 15 Séniors
32 LEGISA STEPHANIE 783 50:54 12,37 4:50 2 Ainées 1
33 WINTGENS NICOLAS 784 51:02 12,34 4:51 16 Séniors
34 DOSTER JEREMIE 715 51:05 12,33 4:51 17 Séniors
35 NAHON CHRISTIAN 743 51:20 12,27 4:53 9 Vétérans 1
36 HAVARD FLORIAN 724 51:25 12,25 4:53 1 Espoirs Garçons
37 DE RIDDER OLIVIER 738 51:28 12,24 4:54 18 Séniors
38 JEUKENS MICHEL 377 51:52 12,14 4:56 5 Vétérans 2
39 MAUHIN BENOIT 726 51:53 12,14 4:56 19 Séniors
40 DESSOUROUX JEAN 755 51:56 12,13 4:56 1 Vétérans 4
41 SZLACHTA CAROLE 511 51:59 12,12 4:57 3 Ainées 1
42 LAMBERT CHRISTOPHE 413 52:13 12,06 4:58 10 Vétérans 1
43 BECKERS JOEL 61 52:21 12,03 4:59 11 Vétérans 1
44 SICIM MUSTAFA 439 52:24 12,02 4:59 12 Vétérans 1
45 HERBET CORALIE 719 52:34 11,98 5:00 1 Espoirs Filles
46 WEERTS JEAN 762 52:36 11,98 5:00 13 Vétérans 1
47 GOMEZ INCONNU 733 52:47 11,93 5:01 2 Espoirs Garçons
48 TOMASOVIC THEO 705 52:52 11,91 5:02 20 Séniors
49 NYSSEN PIERRE 378 52:55 11,90 5:02 6 Vétérans 2
50 JORIS DIDIER 322 53:00 11,89 5:02 14 Vétérans 1
51 HUPPERTS DICK 766 53:22 11,80 5:05 21 Séniors
52 AGUS PAOLO 41 53:32 11,77 5:05 15 Vétérans 1
53 DECHANIS VALERIE 768 53:40 11,74 5:06 2 Ainées 2
54 DEGHAYE BERNARD 170 53:45 11,72 5:07 7 Vétérans 2
55 GILLET GREGORY 770 53:49 11,70 5:07 22 Séniors
56 DEWESPIN QUENTIN 703 53:55 11,68 5:08 23 Séniors
57 GREGOIRE CHRISTOPHE 702 53:56 11,68 5:08 24 Séniors
58 SERVAIS NATHALIE 437 54:01 11,66 5:08 1 Ainées 3
59 DEKENS MARC 709 54:23 11,58 5:10 8 Vétérans 2
60 CUPERS EVELYNE 706 54:26 11,57 5:11 3 Ainées 2
61 BYNENS NICOLAS 138 54:30 11,56 5:11 2 Vétérans 3
62 DONY PHILIPPE 273 54:41 11,52 5:12 16 Vétérans 1
63 LEDENT XAVIER 780 55:08 11,43 5:15 17 Vétérans 1
64 GIET AMAURY 756 55:23 11,37 5:16 25 Séniors
65 SCHMITZ XAVIER 727 55:56 11,26 5:19 18 Vétérans 1
66 HOURLAY FREDERIC 751 56:11 11,21 5:21 19 Vétérans 1
67 LEMAIRE MICHEL 767 56:28 11,15 5:22 9 Vétérans 2
68 MOYSE EVELYNE 415 57:06 11,03 5:26 4 Ainées 1
69 DABOIS MAXIME 720 57:30 10,95 5:28 26 Séniors
70 BECKERS ANAIS 60 57:30 10,95 5:28 2 Espoirs Filles
71 HEYNEN JACQUES 741 57:54 10,88 5:30 27 Séniors
72 MASSART THIERRY 734 58:08 10,84 5:32 3 Vétérans 3
73 LEFIN PASCALE 220 58:21 10,79 5:33 5 Ainées 1
74 COUCKE THOMAS 729 58:28 10,77 5:34 28 Séniors
75 LUCA DI PINASO LUCAS 723 58:34 10,75 5:34 4 Vétérans 3
76 SCHWEYEN MAEVA 722 58:35 10,75 5:34 2 Dames
77 VALENDUL GLENN 721 58:35 10,75 5:34 29 Séniors
78 EUGENE SEBASTIEN 158 58:40 10,74 5:35 20 Vétérans 1
79 LACROIX LUDIVINE 764 58:44 10,73 5:35 3 Dames
80 VANDERHEYDEN JULIANE 763 58:44 10,72 5:35 4 Dames
81 VINCENT LUC 713 58:45 10,72 5:35 30 Séniors
82 SERVAIS RONALD 155 59:22 10,61 5:39 21 Vétérans 1
83 BORGUET SEBASTIEN 785 1:00:20 10,44 5:44 22 Vétérans 1
84 TOMBEUX CLIO 777 1:00:33 10,40 5:46 3 Espoirs Filles
85 TOMBEUX CHRISTOPHE 778 1:00:33 10,40 5:46 23 Vétérans 1
86 BASSLEER OLIVIER 707 1:00:39 10,39 5:46 10 Vétérans 2
87 LAZIDI KEVIN 789 1:00:53 10,35 5:47 31 Séniors
88 SOLHEID ULRIC 335 1:01:02 10,32 5:48 32 Séniors
89 SCUROLE CATHERINE 758 1:01:07 10,31 5:49 6 Ainées 1
90 COUVREUR CHARLES-PHILIPPE 135 1:01:59 10,16 5:54 5 Vétérans 3
91 GAILLARD BENOIT 773 1:02:05 10,15 5:54 24 Vétérans 1
92 MARCHAL AMAURY 477 1:03:16 9,96 6:01 33 Séniors
93 POLIS LUCIENNE 236 1:03:30 9,92 6:02 2 Ainées 3
94 MAWET NATHALIE 491 1:04:21 9,79 6:07 4 Ainées 2
95 COLLARD BOVY ERIC 765 1:04:25 9,78 6:08 6 Vétérans 3
96 HUON NICOLAS 576 1:04:27 9,77 6:08 34 Séniors
97 GOHY VALERIE 484 1:04:37 9,75 6:09 5 Ainées 2
98 SCHOLZEN JOANNIE 375 1:04:41 9,74 6:09 7 Ainées 1
99 MEURICE DAMIEN 790 1:06:51 9,42 6:22 11 Vétérans 2
100 BONHOMME NICOLE 65 1:07:48 9,29 6:27 3 Ainées 3
101 MICHEL AURELIE 759 1:08:43 9,17 6:32 8 Ainées 1
102 COLLETTE DELPHINE 782 1:08:43 9,17 6:32 9 Ainées 1
103 HOURLAY LAURENCE 749 1:08:57 9,14 6:34 6 Ainées 2
104 FRERE ISABELLE 717 1:09:22 9,08 6:36 7 Ainées 2
105 DETHIER SOPHIE 148 1:10:35 8,93 6:43 5 Dames
106 PRIJOT LAURA 704 1:11:01 8,87 6:45 6 Dames
107 CREPPE ANNE FRANCOISE 779 1:11:19 8,83 6:47 10 Ainées 1
108 BERTRANG JULIEN 79 1:11:34 8,80 6:48 2 Vétérans 4
109 MARQUET MANON 757 1:12:03 8,74 6:51 7 Dames
110 CERKIEWICZ BERNARD 732 1:12:27 8,69 6:54 12 Vétérans 2
111 BISSOT ANNE 735 1:12:40 8,67 6:55 11 Ainées 1
112 HIGNY BENOIT 736 1:12:41 8,67 6:55 25 Vétérans 1
113 BALAES MARC 744 1:12:56 8,64 6:56 26 Vétérans 1
114 DUBART SEVERINE 710 1:13:01 8,63 6:57 12 Ainées 1
115 YERNAUX SOPHIE 748 1:14:08 8,50 7:03 13 Ainées 1
116 YERNAUX FLORENCE 753 1:14:08 8,50 7:03 8 Dames
117 ESSELER VALERIE 716 1:14:13 8,49 7:04 14 Ainées 1
118 BONHOMME AUDREY 769 1:20:57 7,78 7:42 15 Ainées 1
119 SCHIERVEL SEVERINE 772 1:20:57 7,78 7:42 8 Ainées 2
120 NYSSEN PIERRE 788 1:20:58 7,78 7:42 35 Séniors
121 MELOT ANNE FRANCOISE 774 1:23:30 7,54 7:57 9 Ainées 2
122 GARDIER MAUDE 776 1:23:30 7,54 7:57 10 Ainées 2
123 PETRY RENAUD 781 1:31:58 6,85 8:45 36 Séniors